Time;durP1;ratioP1;P1;durP2;ratioP2;P2;SDS_P1;SDS_P2;PMS_P1;PMS_P2;Temp;Humidity;BMP_temperature;BMP_pressure;BME280_temperature;BME280_humidity;BME280_pressure;Samples;Min_cycle;Max_cycle;Signal;HPM_P1;HPM_P2
2022/09/03 00:00:24;;;;;;;12.48;4.82;;;;;;;15.95;55.94;100890.25;5031441;28;20029;-74
2022/09/03 00:03:00;;;;;;;15.50;5.53;;;;;;;15.86;57.47;100892.00;5019147;28;20038;-74
2022/09/03 00:05:38;;;;;;;13.23;4.80;;;;;;;15.85;56.20;100889.44;5028816;28;20049;-72
2022/09/03 00:08:30;;;;;;;12.55;4.47;;;;;;;15.82;56.36;100893.28;5031202;28;20027;-72
2022/09/03 00:11:06;;;;;;;15.07;5.15;;;;;;;15.77;56.37;100883.84;5030427;28;20100;-72
2022/09/03 00:13:38;;;;;;;16.35;5.50;;;;;;;15.73;56.12;100881.44;5033195;28;20025;-73
2022/09/03 00:16:09;;;;;;;18.23;4.97;;;;;;;15.70;56.36;100884.44;5032426;28;20048;-73
2022/09/03 00:18:40;;;;;;;13.20;4.88;;;;;;;15.66;56.45;100883.00;5031335;28;20029;-73
2022/09/03 00:21:30;;;;;;;14.63;5.07;;;;;;;15.67;57.41;100887.44;5030621;28;20025;-73
2022/09/03 00:24:00;;;;;;;12.80;5.10;;;;;;;15.61;56.32;100882.59;5030282;28;20025;-72
2022/09/03 00:26:29;;;;;;;13.85;4.93;;;;;;;15.63;56.49;100882.44;5031681;28;20079;-72
2022/09/03 00:29:08;;;;;;;13.73;4.40;;;;;;;15.63;56.74;100885.16;5032426;28;20422;-72
2022/09/03 00:31:39;;;;;;;12.82;4.25;;;;;;;15.61;57.41;100881.72;5032905;28;20527;-72
2022/09/03 00:34:22;;;;;;;15.35;5.07;;;;;;;15.55;58.39;100875.91;5031516;28;20025;-72
2022/09/03 00:36:48;;;;;;;15.98;4.78;;;;;;;15.51;57.93;100879.91;5032396;28;20036;-72
2022/09/03 00:39:20;;;;;;;11.43;4.40;;;;;;;15.51;57.29;100885.31;5029964;28;20056;-72
2022/09/03 00:41:59;;;;;;;16.23;4.95;;;;;;;15.46;58.42;100884.03;5032501;28;20033;-72
2022/09/03 00:44:42;;;;;;;12.98;4.50;;;;;;;15.43;57.60;100878.91;5040131;28;20032;-72
2022/09/03 00:47:33;;;;;;;15.32;4.55;;;;;;;15.41;57.49;100884.47;5026131;28;20025;-72
2022/09/03 00:50:25;;;;;;;13.13;4.55;;;;;;;15.37;57.75;100881.19;5029468;28;20029;-72
2022/09/03 00:53:02;;;;;;;15.70;5.28;;;;;;;15.34;58.02;100880.63;5020136;28;20045;-73
2022/09/03 00:55:57;;;;;;;12.63;4.63;;;;;;;15.34;58.32;100869.78;5011625;28;20985;-73
2022/09/03 00:58:42;;;;;;;15.13;5.15;;;;;;;15.30;58.25;100888.19;5028399;28;20049;-72
2022/09/03 01:01:47;;;;;;;14.73;5.35;;;;;;;15.28;57.92;100876.63;5028551;28;20025;-72
2022/09/03 01:04:38;;;;;;;17.90;6.00;;;;;;;15.25;60.36;100876.06;5010010;28;20068;-72
2022/09/03 01:07:39;;;;;;;16.08;5.15;;;;;;;15.20;59.57;100874.63;5024032;28;20080;-72
2022/09/03 01:10:31;;;;;;;19.00;5.53;;;;;;;15.12;60.32;100866.34;5029773;28;20037;-73
2022/09/03 01:13:11;;;;;;;15.30;5.90;;;;;;;15.09;61.43;100876.63;5025855;28;20140;-73
2022/09/03 01:15:59;;;;;;;14.98;5.50;;;;;;;14.99;60.32;100866.66;5028564;28;20516;-73
2022/09/03 01:18:50;;;;;;;22.83;6.15;;;;;;;14.99;66.12;100865.78;5029155;28;20473;-73
2022/09/03 01:22:07;;;;;;;15.55;5.95;;;;;;;14.96;62.92;100861.50;4951481;28;20046;-73
2022/09/03 01:24:39;;;;;;;16.98;6.20;;;;;;;14.87;64.47;100867.75;4937248;28;20047;-72
2022/09/03 01:27:42;;;;;;;17.48;5.90;;;;;;;14.85;63.47;100867.06;4966315;28;20039;-72
2022/09/03 01:30:16;;;;;;;15.27;5.82;;;;;;;14.77;64.64;100867.72;4967807;28;20110;-72
2022/09/03 01:33:00;;;;;;;17.15;6.28;;;;;;;14.77;66.24;100866.88;4965162;28;20058;-72
2022/09/03 01:35:52;;;;;;;17.33;6.70;;;;;;;14.77;65.42;100875.00;4963691;28;20027;-72
2022/09/03 01:38:38;;;;;;;16.95;6.70;;;;;;;14.71;64.76;100867.44;4958321;28;20047;-72
2022/09/03 01:44:52;;;;;;;16.52;6.70;;;;;;;14.65;67.47;100864.28;4974288;28;20057;-72
2022/09/03 01:47:50;;;;;;;19.30;7.38;;;;;;;14.61;69.50;100871.00;4946157;28;20018;-72
2022/09/03 01:50:41;;;;;;;18.75;6.75;;;;;;;14.52;68.07;100869.06;4969470;28;20053;-72
2022/09/03 01:53:21;;;;;;;19.10;6.63;;;;;;;14.47;68.38;100871.34;4981628;28;20427;-72
2022/09/03 01:56:08;;;;;;;19.42;7.10;;;;;;;14.43;70.47;100875.31;4977339;28;20050;-72
2022/09/03 01:58:50;;;;;;;18.23;7.80;;;;;;;14.36;70.26;100875.00;5011152;28;20097;-72
2022/09/03 02:01:25;;;;;;;19.33;7.78;;;;;;;14.30;72.25;100889.06;5031036;28;20077;-72
2022/09/03 02:03:50;;;;;;;19.25;7.55;;;;;;;14.22;69.99;100878.94;5027947;28;20100;-72
2022/09/03 02:06:19;;;;;;;18.50;7.25;;;;;;;14.15;68.51;100880.47;5028205;28;20114;-72
2022/09/03 02:08:45;;;;;;;19.70;7.55;;;;;;;14.13;71.39;100868.94;5040592;28;20021;-72
2022/09/03 02:11:10;;;;;;;18.42;7.78;;;;;;;14.09;70.88;100867.50;5027069;28;20720;-72
2022/09/03 02:13:56;;;;;;;20.70;7.68;;;;;;;14.07;69.88;100880.28;5029675;28;20021;-72
2022/09/03 02:16:27;;;;;;;17.48;6.78;;;;;;;13.96;68.00;100875.81;5030145;28;20472;-72
2022/09/03 02:18:57;;;;;;;17.77;7.03;;;;;;;13.93;69.74;100870.69;5024886;28;20029;-72
2022/09/03 02:21:24;;;;;;;16.95;7.25;;;;;;;13.89;69.61;100867.38;5028679;28;20022;-72
2022/09/03 02:23:50;;;;;;;18.90;6.97;;;;;;;13.90;70.50;100861.00;5025372;28;20384;-72
2022/09/03 02:26:20;;;;;;;18.88;7.47;;;;;;;13.88;69.28;100868.41;5030053;28;20036;-72
2022/09/03 02:28:46;;;;;;;17.90;6.63;;;;;;;13.84;69.94;100864.25;5030325;28;20044;-72
2022/09/03 02:31:12;;;;;;;20.77;7.68;;;;;;;13.83;71.01;100869.78;5029870;28;20563;-72
2022/09/03 02:33:41;;;;;;;15.50;6.43;;;;;;;13.80;69.54;100873.59;5027632;28;20045;-72
2022/09/03 02:36:10;;;;;;;19.80;7.72;;;;;;;13.81;71.28;100872.63;5029864;28;20111;-72
2022/09/03 02:38:35;;;;;;;19.63;7.50;;;;;;;13.79;71.47;100864.66;5026815;28;20057;-72
2022/09/03 02:41:00;;;;;;;25.85;7.38;;;;;;;13.76;69.86;100869.44;5028264;28;20107;-72
2022/09/03 02:43:32;;;;;;;21.58;7.85;;;;;;;13.72;69.49;100865.28;5029015;28;20033;-72
2022/09/03 02:46:03;;;;;;;18.67;7.28;;;;;;;13.70;70.36;100864.56;5026570;28;20369;-72
2022/09/03 02:48:29;;;;;;;19.52;8.25;;;;;;;13.68;71.57;100861.16;5029196;28;20025;-72
2022/09/03 02:50:54;;;;;;;21.13;7.95;;;;;;;13.63;70.28;100862.41;5018480;28;20025;-72
2022/09/03 02:53:19;;;;;;;20.83;7.18;;;;;;;13.62;68.51;100863.38;5029495;28;20504;-72
2022/09/03 02:55:45;;;;;;;20.10;8.25;;;;;;;13.63;72.20;100867.81;5028243;28;20029;-72
2022/09/03 02:58:10;;;;;;;21.60;8.30;;;;;;;13.67;72.41;100867.53;5027706;28;20497;-72
2022/09/03 03:00:36;;;;;;;19.35;8.13;;;;;;;13.70;70.84;100861.88;5028386;28;20037;-72
2022/09/03 03:03:03;;;;;;;22.50;8.20;;;;;;;13.68;70.67;100859.31;5029392;28;20037;-72
2022/09/03 03:05:56;;;;;;;19.45;8.90;;;;;;;13.74;70.33;100866.03;5019886;28;20076;-72
2022/09/03 03:08:26;;;;;;;22.73;8.95;;;;;;;13.73;72.09;100865.16;5020623;28;20050;-72
2022/09/03 03:10:52;;;;;;;;;;;;;;;13.79;69.38;100872.75;5028577;28;20373;-73
2022/09/03 03:13:18;;;;;;;21.63;9.23;;;;;;;13.74;72.29;100866.03;5028422;28;20344;-72
2022/09/03 03:15:43;;;;;;;18.55;8.07;;;;;;;13.71;71.51;100871.69;5028096;28;20017;-72
2022/09/03 03:18:13;;;;;;;20.75;8.13;;;;;;;13.71;70.66;100861.75;5028311;28;20124;-72
2022/09/03 03:20:39;;;;;;;20.65;8.38;;;;;;;13.74;71.88;100860.63;5029305;28;20031;-73
2022/09/03 03:23:05;;;;;;;27.50;8.40;;;;;;;13.70;72.01;100859.16;5029270;28;20388;-72
2022/09/03 03:25:32;;;;;;;19.80;8.45;;;;;;;13.67;70.18;100857.59;5029117;28;20069;-72
2022/09/03 03:27:57;;;;;;;19.83;8.60;;;;;;;13.66;70.96;100861.28;5029019;28;20032;-72
2022/09/03 03:30:22;;;;;;;22.05;8.25;;;;;;;13.60;70.32;100859.09;5028756;28;20465;-72
2022/09/03 03:32:48;;;;;;;19.05;7.65;;;;;;;13.57;69.09;100862.06;5029649;28;20035;-73
2022/09/03 03:35:13;;;;;;;22.10;8.18;;;;;;;13.55;70.13;100864.91;5028733;28;20033;-72
2022/09/03 03:37:39;;;;;;;20.20;8.18;;;;;;;13.54;70.71;100857.78;5028079;28;20022;-72
2022/09/03 03:40:06;;;;;;;20.10;7.30;;;;;;;13.53;68.75;100866.00;5020943;28;20033;-72
2022/09/03 03:42:33;;;;;;;20.00;8.65;;;;;;;13.52;71.16;100865.16;5024834;28;20040;-73
2022/09/03 03:44:58;;;;;;;18.67;8.07;;;;;;;13.51;70.59;100854.50;5027221;28;20449;-72
2022/09/03 03:47:23;;;;;;;21.35;7.97;;;;;;;13.52;70.42;100859.78;5032643;28;20039;-72
2022/09/03 03:49:49;;;;;;;19.38;8.32;;;;;;;13.53;69.81;100858.78;5046436;28;20096;-72
2022/09/03 03:52:14;;;;;;;19.17;7.68;;;;;;;13.53;70.45;100861.50;5029648;28;20043;-72
2022/09/03 03:54:39;;;;;;;20.35;8.18;;;;;;;13.55;71.39;100869.47;5030350;28;20091;-72
2022/09/03 03:57:05;;;;;;;18.35;7.50;;;;;;;13.52;70.16;100865.16;5026611;28;20028;-72
2022/09/03 03:59:30;;;;;;;19.00;7.78;;;;;;;13.51;70.19;100860.75;5042394;28;20041;-72
2022/09/03 04:01:55;;;;;;;19.90;8.27;;;;;;;13.49;70.09;100864.59;5031850;28;20049;-72
2022/09/03 04:04:21;;;;;;;18.83;7.22;;;;;;;13.51;69.25;100866.16;5029734;28;20120;-72
2022/09/03 04:06:46;;;;;;;18.73;6.30;;;;;;;13.53;69.85;100864.19;5032064;28;20057;-72
2022/09/03 04:09:11;;;;;;;19.17;7.60;;;;;;;13.53;69.64;100861.50;5030752;28;20078;-73
2022/09/03 04:11:37;;;;;;;20.65;7.65;;;;;;;13.51;69.37;100862.59;5029483;28;20049;-73
2022/09/03 04:14:03;;;;;;;20.88;8.10;;;;;;;13.48;69.61;100863.72;5030186;28;20414;-73
2022/09/03 04:16:28;;;;;;;18.90;8.00;;;;;;;13.47;68.76;100864.72;5028898;28;20033;-73
2022/09/03 04:18:54;;;;;;;19.83;8.45;;;;;;;13.48;69.71;100857.47;5029596;28;20350;-73
2022/09/03 04:21:22;;;;;;;19.02;8.15;;;;;;;13.47;70.15;100856.63;5029596;28;20500;-72
2022/09/03 04:23:49;;;;;;;19.23;7.50;;;;;;;13.48;69.23;100852.06;5027674;28;20028;-73
2022/09/03 04:26:22;;;;;;;19.77;8.05;;;;;;;13.49;69.44;100851.94;5030434;28;20036;-73
2022/09/03 04:28:48;;;;;;;23.02;7.85;;;;;;;13.54;68.77;100848.84;5032634;28;20457;-73
2022/09/03 04:31:15;;;;;;;20.52;7.57;;;;;;;13.55;67.00;100851.41;5028007;28;20024;-73
2022/09/03 04:33:41;;;;;;;20.95;7.88;;;;;;;13.61;68.66;100855.41;5029821;28;20021;-73
2022/09/03 04:36:15;;;;;;;19.00;7.32;;;;;;;13.62;68.20;100858.00;5030382;28;20126;-73
2022/09/03 04:38:43;;;;;;;18.63;7.32;;;;;;;13.64;69.37;100860.56;5032184;28;20037;-72
2022/09/03 04:41:11;;;;;;;19.73;7.38;;;;;;;13.61;67.98;100850.88;5032190;28;20091;-72
2022/09/03 04:43:37;;;;;;;22.65;7.68;;;;;;;13.64;68.76;100853.31;5030041;28;20017;-73
2022/09/03 04:46:05;;;;;;;20.77;7.15;;;;;;;13.63;66.89;100851.59;5026431;28;20318;-73
2022/09/03 04:48:32;;;;;;;17.75;6.78;;;;;;;13.68;68.83;100859.31;5028770;28;20049;-73
2022/09/03 04:51:05;;;;;;;19.92;7.63;;;;;;;13.68;68.26;100856.59;5030424;28;20021;-72
2022/09/03 04:53:35;;;;;;;18.50;7.07;;;;;;;13.66;69.66;100866.69;5029830;28;20029;-72
2022/09/03 04:56:01;;;;;;;28.42;7.57;;;;;;;13.63;69.74;100864.22;5031530;28;20048;-72
2022/09/03 04:58:27;;;;;;;19.17;7.22;;;;;;;13.62;68.68;100857.16;5030384;28;20044;-72
2022/09/03 05:00:52;;;;;;;19.20;7.53;;;;;;;13.61;68.08;100867.06;5029508;28;20029;-72
2022/09/03 05:03:18;;;;;;;18.70;8.18;;;;;;;13.60;70.06;100857.28;5026973;28;20063;-72
2022/09/03 05:05:51;;;;;;;17.63;7.00;;;;;;;13.62;69.19;100862.53;5031327;28;20057;-72
2022/09/03 05:08:17;;;;;;;20.35;8.30;;;;;;;13.62;69.07;100858.00;5029248;28;20029;-72
2022/09/03 05:10:42;;;;;;;18.13;7.70;;;;;;;13.64;70.19;100869.50;5030880;28;20120;-73
2022/09/03 05:13:07;;;;;;;18.80;6.53;;;;;;;13.63;67.69;100862.41;5029861;28;20290;-73
2022/09/03 05:15:33;;;;;;;19.45;7.30;;;;;;;13.63;67.89;100851.59;5031220;28;20405;-73
2022/09/03 05:18:00;;;;;;;20.45;7.30;;;;;;;13.66;69.90;100857.72;5029888;28;20028;-72
2022/09/03 05:20:26;;;;;;;18.20;8.27;;;;;;;13.67;70.29;100863.00;5031056;28;20112;-72
2022/09/03 05:22:52;;;;;;;21.10;7.85;;;;;;;13.68;69.01;100858.47;5031265;28;20377;-72
2022/09/03 05:25:17;;;;;;;25.05;8.30;;;;;;;13.67;66.96;100857.59;5031219;28;20037;-72
2022/09/03 05:27:43;;;;;;;23.48;8.95;;;;;;;13.69;70.54;100855.63;5032006;28;20207;-73
2022/09/03 05:30:08;;;;;;;21.00;8.05;;;;;;;13.69;70.45;100858.34;5029020;28;20514;-73
2022/09/03 05:32:34;;;;;;;21.40;8.35;;;;;;;13.71;69.40;100858.19;5053188;28;20033;-73
2022/09/03 05:34:59;;;;;;;20.77;7.85;;;;;;;13.75;68.51;100855.09;5027842;28;20025;-72
2022/09/03 05:37:24;;;;;;;23.00;8.90;;;;;;;13.78;69.10;100857.53;5028988;28;20468;-73
2022/09/03 05:39:50;;;;;;;20.10;7.38;;;;;;;13.82;70.25;100855.41;5029181;28;20052;-72
2022/09/03 05:42:15;;;;;;;19.52;8.38;;;;;;;13.86;68.82;100864.09;5028290;28;20057;-72
2022/09/03 05:44:40;;;;;;;19.88;8.82;;;;;;;13.90;68.17;100863.69;5024910;28;20033;-72
2022/09/03 05:47:05;;;;;;;21.15;7.97;;;;;;;13.92;71.99;100858.16;5026521;28;20445;-72
2022/09/03 05:49:31;;;;;;;21.52;8.90;;;;;;;13.95;72.08;100866.88;5029208;28;20040;-72
2022/09/03 05:51:56;;;;;;;19.70;7.38;;;;;;;13.98;71.18;100865.72;5027003;28;20530;-72
2022/09/03 05:54:22;;;;;;;20.52;8.32;;;;;;;14.03;71.23;100859.94;5028791;28;20059;-73
2022/09/03 05:56:47;;;;;;;22.23;8.80;;;;;;;14.12;70.41;100862.66;5028950;28;20064;-72
2022/09/03 05:59:12;;;;;;;21.48;8.25;;;;;;;14.19;70.38;100865.69;5028581;28;20117;-72
2022/09/03 06:01:40;;;;;;;20.13;7.63;;;;;;;14.28;66.30;100859.47;5027881;28;20408;-72
2022/09/03 06:04:10;;;;;;;21.08;7.82;;;;;;;14.38;65.09;100864.03;5027055;28;20501;-72
2022/09/03 06:06:41;;;;;;;19.70;8.02;;;;;;;14.48;64.52;100859.53;5030046;28;20491;-72
2022/09/03 06:09:16;;;;;;;20.10;7.50;;;;;;;14.57;64.30;100860.53;5026704;28;20037;-73
2022/09/03 06:11:43;;;;;;;20.98;7.47;;;;;;;14.65;61.82;100858.03;5030551;28;20151;-72
2022/09/03 06:14:10;;;;;;;20.40;7.22;;;;;;;14.74;62.65;100868.03;5028730;28;20036;-73
2022/09/03 06:16:40;;;;;;;19.45;6.72;;;;;;;14.83;62.16;100863.63;5022060;28;20032;-72
2022/09/03 06:19:08;;;;;;;21.25;7.50;;;;;;;14.94;61.42;100863.50;5028268;28;20029;-73
2022/09/03 06:21:35;;;;;;;20.20;7.43;;;;;;;15.00;65.33;100862.94;5028967;28;20117;-73
2022/09/03 06:24:01;;;;;;;22.35;8.05;;;;;;;15.09;62.59;100857.69;5025387;28;20040;-73
2022/09/03 06:26:27;;;;;;;19.45;7.40;;;;;;;15.16;61.14;100858.81;5029800;28;20044;-73
2022/09/03 06:28:53;;;;;;;20.60;6.90;;;;;;;15.23;60.15;100865.38;5028016;28;20036;-72
2022/09/03 06:31:19;;;;;;;23.88;7.97;;;;;;;15.32;61.04;100871.78;5029675;28;20033;-72
2022/09/03 06:33:46;;;;;;;19.35;7.82;;;;;;;15.38;66.09;100863.94;5028377;28;20027;-72
2022/09/03 06:36:14;;;;;;;21.90;7.20;;;;;;;15.44;61.20;100867.06;5027600;28;20064;-72
2022/09/03 06:38:40;;;;;;;20.98;8.07;;;;;;;15.52;61.33;100859.94;5029586;28;20032;-72
2022/09/03 06:41:10;;;;;;;19.25;7.70;;;;;;;15.58;59.04;100863.94;5026905;28;20024;-72
2022/09/03 06:43:38;;;;;;;21.60;7.28;;;;;;;15.66;58.70;100869.47;5027550;28;20044;-72
2022/09/03 06:46:11;;;;;;;19.90;7.38;;;;;;;15.75;63.14;100872.31;5028896;28;20029;-73
2022/09/03 06:48:38;;;;;;;21.92;7.40;;;;;;;15.81;60.76;100869.03;5027494;28;20029;-73
2022/09/03 06:51:06;;;;;;;21.33;7.15;;;;;;;15.86;59.60;100869.47;5027513;28;20022;-72
2022/09/03 06:53:34;;;;;;;20.90;6.70;;;;;;;15.92;57.66;100868.88;5028311;28;20048;-72
2022/09/03 06:56:02;;;;;;;19.20;7.40;;;;;;;16.00;59.77;100869.00;5027000;28;20025;-72
2022/09/03 06:58:29;;;;;;;20.25;7.38;;;;;;;16.06;58.77;100870.25;5022676;28;20127;-72
2022/09/03 07:01:08;;;;;;;26.25;7.22;;;;;;;16.15;58.66;100876.63;5026844;28;20033;-73
2022/09/03 07:03:34;;;;;;;18.77;6.93;;;;;;;16.21;57.22;100868.78;5026351;28;20030;-73
2022/09/03 07:06:01;;;;;;;18.92;7.05;;;;;;;16.27;58.14;100871.88;5029995;28;20037;-72
2022/09/03 07:08:27;;;;;;;20.88;7.43;;;;;;;16.34;56.72;100875.69;5026910;28;20036;-72
2022/09/03 07:10:52;;;;;;;20.35;7.68;;;;;;;16.40;58.21;100872.41;5027839;28;20121;-72
2022/09/03 07:13:19;;;;;;;20.55;7.20;;;;;;;16.46;57.71;100876.34;5024550;28;20034;-72
2022/09/03 07:15:44;;;;;;;21.30;6.97;;;;;;;16.53;57.53;100880.19;5023055;28;20116;-71
2022/09/03 07:18:09;;;;;;;17.63;6.78;;;;;;;16.58;57.36;100876.00;5028026;28;20108;-72
2022/09/03 07:20:35;;;;;;;16.42;5.70;;;;;;;16.60;57.04;100867.72;5029295;28;20358;-72
2022/09/03 07:23:00;;;;;;;20.02;6.95;;;;;;;16.67;57.74;100874.25;5031997;28;20116;-72
2022/09/03 07:25:26;;;;;;;16.67;5.85;;;;;;;16.71;57.86;100870.22;5033655;28;20135;-72
2022/09/03 07:27:51;;;;;;;17.77;5.80;;;;;;;16.74;57.14;100877.22;5032233;28;20025;-72
2022/09/03 07:30:18;;;;;;;16.42;5.22;;;;;;;16.77;57.13;100885.91;5031406;28;20017;-72
2022/09/03 07:32:45;;;;;;;14.52;4.68;;;;;;;16.83;56.97;100880.88;5031190;28;20477;-73
2022/09/03 07:35:10;;;;;;;12.07;4.38;;;;;;;16.89;57.41;100877.59;5032178;28;20025;-73
2022/09/03 07:37:37;;;;;;;13.23;4.18;;;;;;;16.91;57.41;100881.00;5031600;28;20025;-73
2022/09/03 07:40:03;;;;;;;11.48;3.95;;;;;;;16.93;58.32;100873.56;5028200;28;20055;-73
2022/09/03 07:42:29;;;;;;;12.40;4.65;;;;;;;16.94;58.07;100880.69;5031815;28;20037;-73
2022/09/03 07:44:55;;;;;;;12.80;4.45;;;;;;;16.94;58.23;100876.13;5029276;28;20067;-72
2022/09/03 07:47:20;;;;;;;13.13;4.43;;;;;;;16.97;57.44;100882.25;5025455;28;20041;-72
2022/09/03 07:49:45;;;;;;;10.45;3.67;;;;;;;17.04;55.74;100884.22;5027167;28;20037;-74
2022/09/03 07:52:11;;;;;;;9.35;3.58;;;;;;;17.10;57.54;100880.00;5030579;28;20456;-74
2022/09/03 07:54:36;;;;;;;6.80;3.45;;;;;;;17.17;56.54;100883.81;5028863;28;20026;-76
2022/09/03 07:57:01;;;;;;;8.77;3.50;;;;;;;17.21;56.33;100874.34;5025482;28;20044;-72
2022/09/03 07:59:27;;;;;;;8.57;3.30;;;;;;;17.23;56.68;100879.63;5027751;28;20481;-72
2022/09/03 08:01:52;;;;;;;11.45;3.88;;;;;;;17.29;58.28;100885.28;5027050;28;20488;-72
2022/09/03 08:04:18;;;;;;;9.60;3.65;;;;;;;17.30;56.95;100881.53;5030659;28;20034;-72
2022/09/03 08:06:43;;;;;;;10.10;3.28;;;;;;;17.33;56.94;100887.69;5031131;28;20466;-72
2022/09/03 08:09:12;;;;;;;8.55;2.70;;;;;;;17.41;56.28;100883.19;5030811;28;20123;-72
2022/09/03 08:11:39;;;;;;;8.93;3.28;;;;;;;17.51;55.91;100885.81;5027844;28;20029;-72
2022/09/03 08:14:07;;;;;;;9.55;3.17;;;;;;;17.55;56.16;100883.63;5026199;28;20124;-72
2022/09/03 08:16:38;;;;;;;7.03;3.10;;;;;;;17.62;56.16;100888.28;5029596;28;20457;-72
2022/09/03 08:19:04;;;;;;;13.48;3.38;;;;;;;17.71;55.38;100883.75;5031042;28;20021;-72
2022/09/03 08:21:29;;;;;;;4.72;2.70;;;;;;;17.74;55.69;100882.59;5031859;28;20037;-72
2022/09/03 08:24:01;;;;;;;10.13;3.33;;;;;;;17.86;55.37;100884.03;5030275;28;20112;-72
2022/09/03 08:26:32;;;;;;;9.25;3.10;;;;;;;17.90;55.70;100892.78;5029314;28;20149;-72
2022/09/03 08:28:58;;;;;;;9.15;3.17;;;;;;;17.93;55.42;100901.44;5030018;28;20489;-72
2022/09/03 08:31:25;;;;;;;5.60;2.75;;;;;;;17.97;54.77;100899.28;5029631;28;20025;-73
2022/09/03 08:33:52;;;;;;;11.02;3.33;;;;;;;18.03;54.80;100901.34;5027818;28;20033;-73
2022/09/03 08:36:21;;;;;;;10.85;3.33;;;;;;;18.07;55.02;100896.44;5033260;28;20022;-72
2022/09/03 08:38:51;;;;;;;8.07;2.83;;;;;;;18.15;54.44;100897.34;5031616;28;20415;-72
2022/09/03 08:41:32;;;;;;;7.57;2.92;;;;;;;18.17;55.73;100900.75;5033113;28;20124;-72
2022/09/03 08:44:21;;;;;;;10.20;3.58;;;;;;;18.24;55.58;100900.09;5026944;28;20100;-72
2022/09/03 08:47:08;;;;;;;9.23;2.97;;;;;;;18.30;54.96;100905.78;5031172;28;20583;-72
2022/09/03 08:49:57;;;;;;;7.32;2.97;;;;;;;18.41;55.17;100907.34;5029193;28;20124;-72
2022/09/03 08:52:29;;;;;;;7.20;3.40;;;;;;;18.56;53.53;100904.00;5031562;28;20033;-72
2022/09/03 08:55:02;;;;;;;10.10;3.20;;;;;;;18.56;55.24;100896.69;5018132;28;20021;-73
2022/09/03 08:57:35;;;;;;;9.70;3.25;;;;;;;18.63;55.22;100902.34;5026746;28;20030;-73
2022/09/03 09:00:01;;;;;;;7.72;3.20;;;;;;;18.73;54.82;100894.03;5030372;28;20080;-72
2022/09/03 09:03:14;;;;;;;11.85;3.50;;;;;;;18.78;55.12;100894.38;5029108;28;20090;-72
2022/09/03 09:05:54;;;;;;;10.35;3.53;;;;;;;18.83;54.33;100897.50;5030403;28;20075;-73
2022/09/03 09:08:31;;;;;;;6.63;3.17;;;;;;;18.93;52.80;100898.22;5032626;28;20469;-73
2022/09/03 09:11:11;;;;;;;5.40;2.80;;;;;;;18.95;55.24;100898.91;5031037;28;20531;-73
2022/09/03 09:13:58;;;;;;;7.82;3.10;;;;;;;18.99;55.48;100896.69;5032022;28;20057;-74
2022/09/03 09:16:35;;;;;;;12.45;3.47;;;;;;;19.03;53.99;100903.50;5031968;28;20150;-74
2022/09/03 09:19:16;;;;;;;12.70;3.55;;;;;;;19.04;55.41;100902.50;5030849;28;20029;-74
2022/09/03 09:21:48;;;;;;;12.63;3.60;;;;;;;19.16;53.63;100914.78;5019994;28;20114;-74
2022/09/03 09:24:22;;;;;;;6.88;2.88;;;;;;;19.24;52.42;100913.94;5031027;28;20033;-74
2022/09/03 09:26:48;;;;;;;8.32;3.03;;;;;;;19.24;55.16;100899.47;5032102;28;20029;-76
2022/09/03 09:29:14;;;;;;;8.98;3.10;;;;;;;19.39;51.98;100901.34;5027724;28;20148;-72
2022/09/03 09:31:43;;;;;;;6.68;2.60;;;;;;;19.50;53.94;100900.19;5029467;28;20025;-73
2022/09/03 09:34:10;;;;;;;7.95;2.90;;;;;;;19.51;53.67;100898.31;5019229;28;20040;-72
2022/09/03 09:36:47;;;;;;;6.90;2.80;;;;;;;19.50;54.91;100897.47;5029934;28;20037;-72
2022/09/03 09:39:14;;;;;;;6.82;3.08;;;;;;;19.54;53.66;100889.78;5029422;28;20030;-72
2022/09/03 09:41:40;;;;;;;8.43;3.40;;;;;;;19.57;54.48;100889.44;5030871;28;20032;-72
2022/09/03 09:44:06;;;;;;;7.72;2.90;;;;;;;19.58;54.96;100888.41;5029660;28;20397;-72
2022/09/03 09:46:38;;;;;;;9.15;3.17;;;;;;;19.71;50.70;100894.19;5031877;28;20029;-72
2022/09/03 09:49:27;;;;;;;7.97;2.85;;;;;;;19.74;53.34;100901.19;5030718;28;20024;-72
2022/09/03 09:52:03;;;;;;;;;;;;;;;19.78;54.09;100905.31;5021686;28;20093;-72
2022/09/03 09:54:28;;;;;;;6.18;2.80;;;;;;;19.85;51.42;100897.28;5029906;28;19920;-72
2022/09/03 09:56:59;;;;;;;7.43;3.20;;;;;;;19.96;52.15;100904.28;5026600;28;20374;-72
2022/09/03 09:59:24;;;;;;;7.95;3.55;;;;;;;20.04;51.87;100896.91;5024980;28;20033;-73
2022/09/03 10:01:50;;;;;;;11.02;3.35;;;;;;;20.06;51.96;100894.03;5028058;28;20048;-72
2022/09/03 10:04:26;;;;;;;6.47;3.13;;;;;;;20.02;53.65;100898.97;5027694;28;20033;-72
2022/09/03 10:07:04;;;;;;;7.82;3.30;;;;;;;20.05;52.33;100895.03;5025596;28;20045;-72
2022/09/03 10:09:31;;;;;;;7.88;3.05;;;;;;;20.08;54.20;100891.97;5028207;28;20131;-72
2022/09/03 10:12:13;;;;;;;8.18;3.15;;;;;;;20.10;52.68;100897.25;5028339;28;20021;-72
2022/09/03 10:14:44;;;;;;;9.75;3.30;;;;;;;20.26;49.46;100891.75;5027852;28;20178;-72
2022/09/03 10:17:17;;;;;;;8.73;2.80;;;;;;;20.31;49.79;100891.22;5022043;28;20026;-72
2022/09/03 10:22:54;;;;;;;8.30;3.30;;;;;;;20.34;51.46;100888.16;5027417;28;20095;-72
2022/09/03 10:25:21;;;;;;;8.90;3.78;;;;;;;20.38;51.29;100879.44;5029094;28;20135;-72
2022/09/03 10:27:46;;;;;;;8.35;2.95;;;;;;;20.39;50.62;100878.38;5025433;28;20033;-72
2022/09/03 10:30:15;;;;;;;7.68;2.80;;;;;;;20.38;51.82;100881.28;5027230;28;20026;-72
2022/09/03 10:33:01;;;;;;;9.20;2.97;;;;;;;20.39;52.12;100883.00;5028681;28;20071;-72
2022/09/03 10:35:30;;;;;;;10.27;3.38;;;;;;;20.51;49.92;100884.31;5029837;28;20052;-72
2022/09/03 10:38:07;;;;;;;;;;;;;;;20.52;52.01;100883.28;5026258;28;20036;-72
2022/09/03 10:40:41;;;;;;;8.32;3.15;;;;;;;20.72;48.82;100885.63;5027795;28;19917;-72
2022/09/03 10:43:46;;;;;;;11.60;3.70;;;;;;;20.83;50.01;100885.22;5029105;28;20041;-72
2022/09/03 10:46:18;;;;;;;9.10;3.20;;;;;;;20.92;49.69;100889.63;5014645;28;20045;-72
2022/09/03 10:49:09;;;;;;;8.10;2.97;;;;;;;21.01;48.29;100879.50;5029646;28;20033;-72
2022/09/03 10:51:40;;;;;;;6.88;3.20;;;;;;;21.10;48.40;100880.28;5024883;28;20021;-72
2022/09/03 10:54:23;;;;;;;9.63;3.33;;;;;;;21.19;50.89;100881.09;5027780;28;20060;-72
2022/09/03 10:57:20;;;;;;;7.18;3.00;;;;;;;21.08;50.33;100882.34;5029695;28;20033;-72
2022/09/03 11:00:00;;;;;;;12.02;3.42;;;;;;;21.16;49.40;100868.63;5029991;28;20013;-72
2022/09/03 11:03:03;;;;;;;8.88;3.10;;;;;;;21.19;49.42;100881.94;5029092;28;20392;-72
2022/09/03 11:05:55;;;;;;;5.63;2.90;;;;;;;21.26;50.11;100868.38;5011023;28;20036;-72
2022/09/03 11:08:27;;;;;;;11.15;3.38;;;;;;;21.29;49.02;100882.53;5004065;28;20085;-73
2022/09/03 11:10:56;;;;;;;5.20;2.80;;;;;;;21.29;49.11;100876.22;5010393;28;20032;-73
2022/09/03 11:13:32;;;;;;;9.07;3.20;;;;;;;21.35;47.91;100880.09;5010222;28;20040;-72
2022/09/03 11:16:03;;;;;;;5.57;2.85;;;;;;;21.27;50.34;100878.28;5005595;28;20033;-72
2022/09/03 11:18:37;;;;;;;11.77;3.70;;;;;;;21.34;48.72;100879.25;5014637;28;20155;-72
2022/09/03 11:21:06;;;;;;;7.47;3.08;;;;;;;21.37;50.04;100873.41;5011143;28;20025;-72
2022/09/03 11:23:36;;;;;;;9.13;3.40;;;;;;;21.37;50.25;100869.84;5006963;28;20064;-73
2022/09/03 11:26:07;;;;;;;8.80;3.25;;;;;;;21.34;49.93;100871.06;5002038;28;20033;-74
2022/09/03 11:29:01;;;;;;;11.05;3.53;;;;;;;21.50;47.37;100867.34;5008444;28;20107;-75
2022/09/03 11:31:56;;;;;;;7.85;3.65;;;;;;;21.51;47.96;100863.59;5008743;28;20528;-74
2022/09/03 11:34:25;;;;;;;12.20;3.78;;;;;;;21.59;47.39;100865.41;5003809;28;20120;-72
2022/09/03 11:36:51;;;;;;;8.38;3.45;;;;;;;21.59;48.79;100868.97;5010396;28;20034;-74
2022/09/03 11:39:32;;;;;;;5.68;3.13;;;;;;;21.59;49.74;100862.69;5008698;28;20021;-74
2022/09/03 11:42:05;;;;;;;6.82;3.28;;;;;;;21.59;49.99;100863.50;4997340;28;20107;-74
2022/09/03 11:44:40;;;;;;;6.85;3.33;;;;;;;21.62;48.41;100854.94;5005901;28;20033;-75
2022/09/03 11:47:16;;;;;;;9.65;3.65;;;;;;;21.75;48.24;100872.63;5010182;28;20103;-74